Time;durP1;ratioP1;P1;durP2;ratioP2;P2;SDS_P1;SDS_P2;PMS_P1;PMS_P2;Temp;Humidity;BMP_temperature;BMP_pressure;BME280_temperature;BME280_humidity;BME280_pressure;Samples;Min_cycle;Max_cycle;Signal;HPM_P1;HPM_P2
2020/12/21 00:01:23;;;;;;;12.65;4.15;;;6.20;90.80;;;;;;5066609;28;20366;-80
2020/12/21 00:03:49;;;;;;;14.82;4.13;;;6.20;91.00;;;;;;5064554;28;20033;-80
2020/12/21 00:06:15;;;;;;;15.13;4.70;;;6.20;91.00;;;;;;5062418;28;20033;-80
2020/12/21 00:08:42;;;;;;;18.58;5.25;;;6.10;91.00;;;;;;5066706;28;20112;-80
2020/12/21 00:11:08;;;;;;;13.82;5.00;;;6.20;91.10;;;;;;5061127;28;20028;-80
2020/12/21 00:13:33;;;;;;;13.07;3.92;;;6.10;91.10;;;;;;5065628;28;20033;-79
2020/12/21 00:15:59;;;;;;;16.92;4.45;;;6.10;91.20;;;;;;5066109;28;20024;-79
2020/12/21 00:18:25;;;;;;;13.40;4.38;;;6.10;91.30;;;;;;5067843;28;20025;-79
2020/12/21 00:20:51;;;;;;;14.00;4.07;;;6.10;91.30;;;;;;5063290;28;20024;-79
2020/12/21 00:23:16;;;;;;;13.75;4.07;;;6.10;91.30;;;;;;5063077;28;20028;-79
2020/12/21 00:25:42;;;;;;;13.48;4.57;;;6.10;91.20;;;;;;5065513;28;20029;-79
2020/12/21 00:28:08;;;;;;;17.17;4.65;;;6.10;91.30;;;;;;5062895;28;20027;-79
2020/12/21 00:30:34;;;;;;;15.48;4.22;;;6.10;91.40;;;;;;5066222;28;20107;-79
2020/12/21 00:33:00;;;;;;;12.95;4.28;;;6.10;91.60;;;;;;5061263;28;20024;-79
2020/12/21 00:35:27;;;;;;;14.48;3.90;;;6.10;91.60;;;;;;5065097;28;20025;-79
2020/12/21 00:37:53;;;;;;;16.05;5.22;;;6.10;91.60;;;;;;5061027;28;20504;-79
2020/12/21 00:40:18;;;;;;;11.77;4.38;;;6.10;91.60;;;;;;5062431;28;20471;-79
2020/12/21 00:42:45;;;;;;;14.25;3.78;;;6.20;91.50;;;;;;5063208;28;20086;-80
2020/12/21 00:45:11;;;;;;;10.52;4.57;;;6.20;91.50;;;;;;5060819;28;20032;-79
2020/12/21 00:47:36;;;;;;;13.57;5.38;;;6.10;91.40;;;;;;5062810;28;20341;-79
2020/12/21 00:50:04;;;;;;;13.52;4.57;;;6.20;91.30;;;;;;5066408;28;20379;-79
2020/12/21 00:52:29;;;;;;;20.65;5.95;;;6.20;91.20;;;;;;5064144;28;20028;-79
2020/12/21 00:54:55;;;;;;;16.15;4.32;;;6.10;91.30;;;;;;5064092;28;20032;-79
2020/12/21 00:57:21;;;;;;;16.50;4.30;;;6.20;91.40;;;;;;5061338;28;20029;-79
2020/12/21 00:59:46;;;;;;;12.60;4.50;;;6.20;91.40;;;;;;5065664;28;20056;-79
2020/12/21 01:02:12;;;;;;;17.92;5.90;;;6.20;91.30;;;;;;5064796;28;20060;-79
2020/12/21 01:04:37;;;;;;;19.20;4.55;;;6.10;91.30;;;;;;5064488;28;20048;-79
2020/12/21 01:07:03;;;;;;;11.52;4.35;;;6.10;91.40;;;;;;5061656;28;20055;-79
2020/12/21 01:09:29;;;;;;;17.10;5.28;;;6.20;91.40;;;;;;5063265;28;20400;-79
2020/12/21 01:11:55;;;;;;;15.77;5.18;;;6.20;91.40;;;;;;5064241;28;20515;-79
2020/12/21 01:14:20;;;;;;;17.67;4.88;;;6.10;91.50;;;;;;5064303;28;20064;-79
2020/12/21 01:16:46;;;;;;;15.90;4.80;;;6.10;91.60;;;;;;5063614;28;20082;-79
2020/12/21 01:19:12;;;;;;;15.40;5.63;;;6.10;91.60;;;;;;5064592;28;20032;-79
2020/12/21 01:21:37;;;;;;;12.88;4.75;;;6.10;91.70;;;;;;5061630;28;20101;-79
2020/12/21 01:24:03;;;;;;;19.70;4.75;;;6.10;91.70;;;;;;5063811;28;20445;-79
2020/12/21 01:26:30;;;;;;;16.05;5.82;;;6.10;91.80;;;;;;5062450;28;20603;-79
2020/12/21 01:28:56;;;;;;;14.98;4.47;;;6.10;91.80;;;;;;5063937;28;20033;-79
2020/12/21 01:31:23;;;;;;;12.57;5.15;;;6.20;91.70;;;;;;5062423;28;20021;-79
2020/12/21 01:33:50;;;;;;;13.38;5.00;;;6.10;91.70;;;;;;5054080;28;20048;-79
2020/12/21 01:36:20;;;;;;;14.77;5.22;;;6.20;91.80;;;;;;5059432;28;20044;-79
2020/12/21 01:38:46;;;;;;;18.73;6.40;;;6.20;91.80;;;;;;5064228;28;20036;-79
2020/12/21 01:41:11;;;;;;;15.85;5.40;;;6.20;91.90;;;;;;5060464;28;20039;-79
2020/12/21 01:43:37;;;;;;;16.55;4.80;;;6.30;91.80;;;;;;5058209;28;20437;-79
2020/12/21 01:46:14;;;;;;;13.68;5.32;;;6.30;91.80;;;;;;5062367;28;20029;-79
2020/12/21 01:48:43;;;;;;;17.88;5.43;;;6.20;91.80;;;;;;5061882;28;20115;-79
2020/12/21 01:51:12;;;;;;;17.80;7.03;;;6.30;91.80;;;;;;5063479;28;20039;-79
2020/12/21 01:53:39;;;;;;;16.23;6.40;;;6.30;91.80;;;;;;5061903;28;20060;-79
2020/12/21 01:56:05;;;;;;;17.30;6.60;;;6.30;91.70;;;;;;5064071;28;20524;-79
2020/12/21 01:58:32;;;;;;;15.70;6.43;;;6.30;91.70;;;;;;5063418;28;20021;-79
2020/12/21 02:01:03;;;;;;;12.27;6.13;;;6.30;91.70;;;;;;5063157;28;20059;-79
2020/12/21 02:03:29;;;;;;;18.45;7.63;;;6.30;91.60;;;;;;5063192;28;20028;-79
2020/12/21 02:05:55;;;;;;;19.80;7.05;;;6.30;91.60;;;;;;5063255;28;20109;-81
2020/12/21 02:08:20;;;;;;;16.42;6.68;;;6.30;91.70;;;;;;5063898;28;20032;-79
2020/12/21 02:10:46;;;;;;;19.60;7.55;;;6.40;91.80;;;;;;5062520;28;20062;-79
2020/12/21 02:13:12;;;;;;;14.23;6.95;;;6.40;91.70;;;;;;5075216;28;20020;-79
2020/12/21 02:15:37;;;;;;;19.50;8.35;;;6.40;91.60;;;;;;5064034;28;20012;-80
2020/12/21 02:18:03;;;;;;;19.88;8.77;;;6.40;91.70;;;;;;5059363;28;20104;-80
2020/12/21 02:20:31;;;;;;;19.30;8.02;;;6.40;91.70;;;;;;5065017;28;20028;-79
2020/12/21 02:22:57;;;;;;;17.83;8.02;;;6.40;91.70;;;;;;5061315;28;20021;-80
2020/12/21 02:25:23;;;;;;;17.10;7.65;;;6.40;91.80;;;;;;5061461;28;20032;-79
2020/12/21 02:27:49;;;;;;;14.95;7.50;;;6.40;91.80;;;;;;5064156;28;20036;-80
2020/12/21 02:30:15;;;;;;;16.75;8.65;;;6.50;91.80;;;;;;5054711;28;20033;-79
2020/12/21 02:32:40;;;;;;;17.45;7.93;;;6.50;91.80;;;;;;5060237;28;20107;-79
2020/12/21 02:35:06;;;;;;;16.88;8.40;;;6.50;91.90;;;;;;5064481;28;20061;-79
2020/12/21 02:37:33;;;;;;;14.68;7.85;;;6.50;91.80;;;;;;5065797;28;20089;-79
2020/12/21 02:39:58;;;;;;;18.65;7.50;;;6.50;91.70;;;;;;5068339;28;20024;-79
2020/12/21 02:42:24;;;;;;;20.95;8.68;;;6.50;91.70;;;;;;5056977;28;20370;-79
2020/12/21 02:44:50;;;;;;;21.48;8.07;;;6.50;91.70;;;;;;5066683;28;20363;-80
2020/12/21 02:47:15;;;;;;;18.90;8.23;;;6.60;91.80;;;;;;5060740;28;20452;-79
2020/12/21 02:49:41;;;;;;;20.10;8.75;;;6.60;91.80;;;;;;5065323;28;20474;-79
2020/12/21 02:52:06;;;;;;;19.20;7.85;;;6.60;91.70;;;;;;5061665;28;20035;-80
2020/12/21 02:54:32;;;;;;;22.38;9.07;;;6.60;91.80;;;;;;5066257;28;20505;-79
2020/12/21 02:56:58;;;;;;;21.30;7.35;;;6.60;91.80;;;;;;5050514;28;20071;-79
2020/12/21 02:59:23;;;;;;;19.10;8.85;;;6.60;91.80;;;;;;5072282;28;20033;-79
2020/12/21 03:01:49;;;;;;;19.23;8.50;;;6.60;91.80;;;;;;5067128;28;20029;-79
2020/12/21 03:04:14;;;;;;;18.05;8.13;;;6.60;91.80;;;;;;5056441;28;20048;-79
2020/12/21 03:06:40;;;;;;;18.42;8.55;;;6.60;91.80;;;;;;5064273;28;20077;-79
2020/12/21 03:09:06;;;;;;;20.20;8.77;;;6.60;91.90;;;;;;5059763;28;20025;-80
2020/12/21 03:11:31;;;;;;;18.90;9.27;;;6.70;91.90;;;;;;5066750;28;20024;-80
2020/12/21 03:13:57;;;;;;;19.85;7.82;;;6.60;91.90;;;;;;5065593;28;20040;-80
2020/12/21 03:16:26;;;;;;;18.63;8.57;;;6.70;91.90;;;;;;5061033;28;20087;-80
2020/12/21 03:18:51;;;;;;;17.70;8.18;;;6.70;91.90;;;;;;5064517;28;20051;-80
2020/12/21 03:21:17;;;;;;;19.98;8.20;;;6.70;91.90;;;;;;5066788;28;20438;-80
2020/12/21 03:23:43;;;;;;;18.63;7.80;;;6.70;91.90;;;;;;5065448;28;20058;-80
2020/12/21 03:26:09;;;;;;;18.92;8.13;;;6.70;92.00;;;;;;5062567;28;20021;-80
2020/12/21 03:28:35;;;;;;;19.35;7.82;;;6.80;91.90;;;;;;5067229;28;20184;-79
2020/12/21 03:31:01;;;;;;;20.58;8.57;;;6.80;92.00;;;;;;5060025;28;20106;-79
2020/12/21 03:33:27;;;;;;;22.95;8.65;;;6.80;92.00;;;;;;5063105;28;20159;-79
2020/12/21 03:35:53;;;;;;;21.20;7.43;;;6.80;92.10;;;;;;5060767;28;20373;-79
2020/12/21 03:38:18;;;;;;;19.58;7.97;;;6.80;92.10;;;;;;5067876;28;20047;-80
2020/12/21 03:40:44;;;;;;;19.10;7.63;;;6.80;92.10;;;;;;5058451;28;20036;-79
2020/12/21 03:43:09;;;;;;;15.88;7.88;;;6.80;92.00;;;;;;5058211;28;20028;-80
2020/12/21 03:45:35;;;;;;;20.35;8.48;;;6.90;92.00;;;;;;5068542;28;20103;-80
2020/12/21 03:48:01;;;;;;;21.73;7.97;;;6.90;92.00;;;;;;5060773;28;20023;-79
2020/12/21 03:50:27;;;;;;;21.25;8.95;;;7.00;91.90;;;;;;5063153;28;20139;-80
2020/12/21 03:52:52;;;;;;;19.27;7.63;;;6.90;91.90;;;;;;5062189;28;20492;-80
2020/12/21 03:55:18;;;;;;;19.42;8.77;;;6.90;92.00;;;;;;5054875;28;20535;-80
2020/12/21 03:57:44;;;;;;;22.98;8.13;;;7.00;92.00;;;;;;5060692;28;20016;-79
2020/12/21 04:00:09;;;;;;;21.38;7.93;;;6.90;91.90;;;;;;5060224;28;20052;-80
2020/12/21 04:02:37;;;;;;;19.35;8.25;;;6.90;92.00;;;;;;5067515;28;20130;-80
2020/12/21 04:05:06;;;;;;;14.80;7.80;;;7.00;92.00;;;;;;5069119;28;20436;-79
2020/12/21 04:07:35;;;;;;;19.73;7.53;;;7.00;92.00;;;;;;5066782;28;20471;-80
2020/12/21 04:10:03;;;;;;;18.52;7.03;;;7.00;92.10;;;;;;5061028;28;20060;-80
2020/12/21 04:12:28;;;;;;;17.80;7.38;;;7.00;92.00;;;;;;5068293;28;20115;-79
2020/12/21 04:14:54;;;;;;;20.83;7.13;;;7.00;92.00;;;;;;5065392;28;20167;-80
2020/12/21 04:17:19;;;;;;;18.85;7.78;;;6.90;92.10;;;;;;5063755;28;20325;-80
2020/12/21 04:19:45;;;;;;;17.10;6.82;;;7.00;92.00;;;;;;5055819;28;20036;-80
2020/12/21 04:22:11;;;;;;;18.83;7.15;;;7.00;92.10;;;;;;5059258;28;20382;-79
2020/12/21 04:24:36;;;;;;;17.75;6.80;;;7.00;92.10;;;;;;5068283;28;20029;-80
2020/12/21 04:27:02;;;;;;;24.52;7.50;;;7.00;92.20;;;;;;5060041;28;20025;-79
2020/12/21 04:29:28;;;;;;;17.33;6.38;;;7.00;92.20;;;;;;5067521;28;20036;-80
2020/12/21 04:31:54;;;;;;;19.90;7.50;;;7.00;92.20;;;;;;5054480;28;20068;-79
2020/12/21 04:34:22;;;;;;;20.92;8.07;;;7.00;92.20;;;;;;5065877;28;20115;-80
2020/12/21 04:36:48;;;;;;;25.88;8.38;;;7.10;92.20;;;;;;5064201;28;20075;-80
2020/12/21 04:39:14;;;;;;;21.33;7.88;;;7.10;92.20;;;;;;5069088;28;20406;-79
2020/12/21 04:41:39;;;;;;;16.38;7.32;;;7.10;92.20;;;;;;5063615;28;20033;-79
2020/12/21 04:44:05;;;;;;;19.48;6.97;;;7.10;92.10;;;;;;5060160;28;20029;-80
2020/12/21 04:46:31;;;;;;;17.23;7.60;;;7.10;92.10;;;;;;5059773;28;20024;-80
2020/12/21 04:48:58;;;;;;;19.10;8.60;;;7.10;92.10;;;;;;5065714;28;20017;-80
2020/12/21 04:51:32;;;;;;;22.65;7.72;;;7.10;92.00;;;;;;5065920;28;20344;-80
2020/12/21 04:53:57;;;;;;;21.23;9.10;;;7.10;92.00;;;;;;5065919;28;20127;-80
2020/12/21 04:56:24;;;;;;;19.35;8.23;;;7.10;92.10;;;;;;5061835;28;20439;-80
2020/12/21 04:58:49;;;;;;;17.63;7.70;;;7.10;92.10;;;;;;5066702;28;20043;-80
2020/12/21 05:01:15;;;;;;;17.52;8.10;;;7.10;92.10;;;;;;5061071;28;20120;-80
2020/12/21 05:03:40;;;;;;;25.63;8.18;;;7.10;92.10;;;;;;5067752;28;20428;-79
2020/12/21 05:06:07;;;;;;;16.90;8.38;;;7.10;92.10;;;;;;5060558;28;20043;-80
2020/12/21 05:08:32;;;;;;;25.25;7.88;;;7.10;92.10;;;;;;5063076;28;20051;-80
2020/12/21 05:11:03;;;;;;;21.67;8.10;;;7.20;92.20;;;;;;5058516;28;20056;-80
2020/12/21 05:13:30;;;;;;;18.80;7.45;;;7.20;92.20;;;;;;5055938;28;20029;-80
2020/12/21 05:15:58;;;;;;;14.70;7.82;;;7.20;92.30;;;;;;5039696;28;20105;-80
2020/12/21 05:18:34;;;;;;;19.02;7.68;;;7.20;92.20;;;;;;5043442;28;20535;-79
2020/12/21 05:21:05;;;;;;;17.83;7.90;;;7.30;92.20;;;;;;5041132;28;20052;-79
2020/12/21 05:23:31;;;;;;;14.60;7.93;;;7.30;92.30;;;;;;5052006;28;20035;-79
2020/12/21 05:26:04;;;;;;;22.20;9.00;;;7.30;92.20;;;;;;5056081;28;20111;-80
2020/12/21 05:28:34;;;;;;;24.40;8.95;;;7.30;92.30;;;;;;5049839;28;20087;-79
2020/12/21 05:31:03;;;;;;;23.15;8.73;;;7.30;92.30;;;;;;5054216;28;20625;-80
2020/12/21 05:33:29;;;;;;;20.85;8.25;;;7.30;92.30;;;;;;5064981;28;20020;-79
2020/12/21 05:35:56;;;;;;;19.05;9.07;;;7.40;92.40;;;;;;5063281;28;20039;-80
2020/12/21 05:38:24;;;;;;;17.85;8.85;;;7.40;92.30;;;;;;5061548;28;20028;-80
2020/12/21 05:40:50;;;;;;;21.13;8.90;;;7.30;92.50;;;;;;5057644;28;20368;-79
2020/12/21 05:43:29;;;;;;;18.05;8.40;;;7.40;92.50;;;;;;5065961;28;20104;-80
2020/12/21 05:46:14;;;;;;;25.63;9.23;;;7.40;92.50;;;;;;5051383;28;20471;-80
2020/12/21 05:48:45;;;;;;;21.88;8.73;;;7.40;92.50;;;;;;5060802;28;20028;-79
2020/12/21 05:51:12;;;;;;;19.30;8.73;;;7.40;92.60;;;;;;5062881;28;20021;-79
2020/12/21 05:53:43;;;;;;;20.50;9.35;;;7.40;92.70;;;;;;5057422;28;20033;-80
2020/12/21 05:56:10;;;;;;;25.00;9.30;;;7.40;92.70;;;;;;5066740;28;20036;-80
2020/12/21 05:58:41;;;;;;;18.48;8.45;;;7.40;92.80;;;;;;5061301;28;20024;-79
2020/12/21 06:01:11;;;;;;;17.80;9.02;;;7.40;92.80;;;;;;5065622;28;20525;-80
2020/12/21 06:03:42;;;;;;;22.33;9.18;;;7.40;92.80;;;;;;5054650;28;20113;-79
2020/12/21 06:06:18;;;;;;;22.15;8.60;;;7.50;92.80;;;;;;5067293;28;20498;-79
2020/12/21 06:08:52;;;;;;;23.23;9.38;;;7.40;92.90;;;;;;5065508;28;20378;-79
2020/12/21 06:11:28;;;;;;;26.35;9.52;;;7.50;92.90;;;;;;5062717;28;20078;-79
2020/12/21 06:14:06;;;;;;;18.45;9.52;;;7.50;93.00;;;;;;5070019;28;20024;-80
2020/12/21 06:16:35;;;;;;;21.50;9.30;;;7.50;93.00;;;;;;5074115;28;20109;-80
2020/12/21 06:19:06;;;;;;;19.35;9.10;;;7.40;93.00;;;;;;5070368;28;20374;-79
2020/12/21 06:21:47;;;;;;;19.48;8.55;;;7.50;93.10;;;;;;5068476;28;20031;-80
2020/12/21 06:24:17;;;;;;;18.85;9.73;;;7.50;93.10;;;;;;5056464;28;20029;-80
2020/12/21 06:26:42;;;;;;;18.05;8.77;;;7.50;93.20;;;;;;5070003;28;20044;-79
2020/12/21 06:29:15;;;;;;;19.90;9.27;;;7.50;93.30;;;;;;5064942;28;20170;-79
2020/12/21 06:31:45;;;;;;;20.02;9.90;;;7.60;93.30;;;;;;5069666;28;20070;-80
2020/12/21 06:34:15;;;;;;;21.40;9.65;;;7.50;93.30;;;;;;5068894;28;20032;-79
2020/12/21 06:36:43;;;;;;;16.70;9.52;;;7.60;93.40;;;;;;5067515;28;20119;-80
2020/12/21 06:39:09;;;;;;;22.50;9.68;;;7.60;93.40;;;;;;5068446;28;20056;-80
2020/12/21 06:41:35;;;;;;;20.88;10.65;;;7.60;93.50;;;;;;5069139;28;20403;-79
2020/12/21 06:44:06;;;;;;;18.40;10.20;;;7.60;93.40;;;;;;5070747;28;20036;-79
2020/12/21 06:46:34;;;;;;;20.13;9.15;;;7.60;93.50;;;;;;5064725;28;20036;-79
2020/12/21 06:49:17;;;;;;;20.00;9.07;;;7.60;93.60;;;;;;5073650;28;20028;-79
2020/12/21 06:51:45;;;;;;;20.88;9.43;;;7.60;93.60;;;;;;5064063;28;20075;-79
2020/12/21 06:54:12;;;;;;;22.08;9.65;;;7.60;93.50;;;;;;5059738;28;20045;-79
2020/12/21 06:56:40;;;;;;;23.20;10.23;;;7.70;93.60;;;;;;5067744;28;20029;-79
2020/12/21 06:59:16;;;;;;;21.13;9.23;;;7.70;93.50;;;;;;5063533;28;20466;-79
2020/12/21 07:01:44;;;;;;;17.23;8.63;;;7.70;93.50;;;;;;5064505;28;20044;-79
2020/12/21 07:04:21;;;;;;;16.15;8.13;;;7.80;93.40;;;;;;5068692;28;20060;-79
2020/12/21 07:06:48;;;;;;;17.08;7.22;;;7.80;93.30;;;;;;5064087;28;20047;-79
2020/12/21 07:09:15;;;;;;;16.58;7.65;;;7.80;93.20;;;;;;5061896;28;20044;-80
2020/12/21 07:11:42;;;;;;;15.68;6.63;;;7.80;93.10;;;;;;5063704;28;20023;-79
2020/12/21 07:14:12;;;;;;;16.88;6.97;;;7.80;93.00;;;;;;5070438;28;20025;-79
2020/12/21 07:16:38;;;;;;;17.50;7.10;;;7.80;92.90;;;;;;5059040;28;20029;-79
2020/12/21 07:19:04;;;;;;;24.17;8.38;;;7.90;92.80;;;;;;5065985;28;20094;-79
2020/12/21 07:21:33;;;;;;;19.75;7.68;;;7.90;92.80;;;;;;5067426;28;20414;-79
2020/12/21 07:23:58;;;;;;;20.90;7.43;;;7.90;92.90;;;;;;5066698;28;20086;-79
2020/12/21 07:26:26;;;;;;;15.30;6.97;;;8.00;92.90;;;;;;5061872;28;20025;-79
2020/12/21 07:28:52;;;;;;;14.88;7.70;;;8.00;92.90;;;;;;5061522;28;20072;-79
2020/12/21 07:31:20;;;;;;;14.63;6.72;;;8.10;92.90;;;;;;5067651;28;20463;-79
2020/12/21 07:33:51;;;;;;;18.45;7.80;;;8.10;92.80;;;;;;5056406;28;20036;-79
2020/12/21 07:36:18;;;;;;;15.20;6.70;;;8.10;92.80;;;;;;5060892;28;20040;-79
2020/12/21 07:38:44;;;;;;;13.63;7.22;;;8.10;92.70;;;;;;5066439;28;20075;-79
2020/12/21 07:41:11;;;;;;;17.08;7.13;;;8.10;92.60;;;;;;5067847;28;20021;-79
2020/12/21 07:43:41;;;;;;;20.42;7.32;;;8.10;92.60;;;;;;5060257;28;20036;-79
2020/12/21 07:46:10;;;;;;;12.43;6.82;;;8.10;92.50;;;;;;5057407;28;20384;-79
2020/12/21 07:48:36;;;;;;;17.15;6.07;;;8.20;92.40;;;;;;5067165;28;20119;-79
2020/12/21 07:51:04;;;;;;;15.93;6.28;;;8.10;92.30;;;;;;5067891;28;20103;-79
2020/12/21 07:53:37;;;;;;;18.23;7.13;;;8.20;92.30;;;;;;5057104;28;20064;-79
2020/12/21 07:56:03;;;;;;;13.13;6.18;;;8.10;92.20;;;;;;5062113;28;20020;-79
2020/12/21 07:58:33;;;;;;;13.63;5.47;;;8.10;92.30;;;;;;5068496;28;20462;-79
2020/12/21 08:00:59;;;;;;;10.93;5.53;;;8.10;92.30;;;;;;5063291;28;20913;-79
2020/12/21 08:03:28;;;;;;;16.48;6.40;;;8.20;92.20;;;;;;5059187;28;22154;-79
2020/12/21 08:06:16;;;;;;;12.98;5.40;;;8.20;92.00;;;;;;5080347;28;20027;-79
2020/12/21 08:08:42;;;;;;;13.60;5.88;;;8.20;91.90;;;;;;5066514;28;20154;-79
2020/12/21 08:11:17;;;;;;;14.77;5.43;;;8.20;91.80;;;;;;5065329;28;20052;-79
2020/12/21 08:13:46;;;;;;;;;;;8.20;91.60;;;;;;5067915;28;20028;-79
2020/12/21 08:16:12;;;;;;;9.32;4.15;;;8.30;91.40;;;;;;5067304;28;19912;-80
2020/12/21 08:18:38;;;;;;;11.90;4.43;;;8.30;91.40;;;;;;5067131;28;20038;-79
2020/12/21 08:21:04;;;;;;;11.80;5.05;;;8.30;91.40;;;;;;5065799;28;20033;-79
2020/12/21 08:23:31;;;;;;;9.23;4.45;;;8.30;91.40;;;;;;5067081;28;20052;-78
2020/12/21 08:25:58;;;;;;;11.40;4.43;;;8.30;91.30;;;;;;5063504;28;20020;-78
2020/12/21 08:28:31;;;;;;;12.63;4.60;;;8.30;91.30;;;;;;5064699;28;20024;-79
2020/12/21 08:31:11;;;;;;;9.77;3.65;;;8.30;91.10;;;;;;5061760;28;20524;-79
2020/12/21 08:33:40;;;;;;;12.07;4.47;;;8.30;91.10;;;;;;5066846;28;20340;-79
2020/12/21 08:36:18;;;;;;;8.70;4.07;;;8.40;91.00;;;;;;5063787;28;20020;-79
2020/12/21 08:38:44;;;;;;;11.15;4.30;;;8.40;90.80;;;;;;5068187;28;20032;-80
2020/12/21 08:41:10;;;;;;;11.52;4.18;;;8.30;90.70;;;;;;5062404;28;20024;-79
2020/12/21 08:43:36;;;;;;;11.63;4.50;;;8.40;91.00;;;;;;5062779;28;20027;-80
2020/12/21 08:46:10;;;;;;;10.40;4.00;;;8.30;90.90;;;;;;5059439;28;20025;-79
2020/12/21 08:48:40;;;;;;;10.05;4.20;;;8.30;90.90;;;;;;5068363;28;20029;-80
2020/12/21 08:51:06;;;;;;;8.40;4.15;;;8.30;90.90;;;;;;5057738;28;20136;-80
2020/12/21 08:53:31;;;;;;;10.20;3.80;;;8.30;91.00;;;;;;5057790;28;20143;-79
2020/12/21 08:55:57;;;;;;;8.55;4.20;;;8.40;90.90;;;;;;5057572;28;20020;-80
2020/12/21 08:58:23;;;;;;;12.15;3.85;;;8.40;90.80;;;;;;5059518;28;20456;-79
2020/12/21 09:00:48;;;;;;;10.52;3.83;;;8.40;90.70;;;;;;5065516;28;20036;-80
2020/12/21 09:03:14;;;;;;;9.80;3.67;;;8.50;90.60;;;;;;5055482;28;20036;-79
2020/12/21 09:05:40;;;;;;;7.35;3.08;;;8.50;90.30;;;;;;5063167;28;20041;-80
2020/12/21 09:08:05;;;;;;;9.38;3.33;;;8.50;90.30;;;;;;5059003;28;20495;-79
2020/12/21 09:10:31;;;;;;;8.30;3.22;;;8.50;90.10;;;;;;5066635;28;20525;-78
2020/12/21 09:12:57;;;;;;;7.05;3.05;;;8.60;90.00;;;;;;5055371;28;20491;-79
2020/12/21 09:15:22;;;;;;;8.38;3.30;;;8.60;89.90;;;;;;5063588;28;20502;-79
2020/12/21 09:17:48;;;;;;;7.15;2.65;;;8.60;89.50;;;;;;5063587;28;20037;-80
2020/12/21 09:20:14;;;;;;;8.02;2.75;;;8.60;89.30;;;;;;5063706;28;20086;-80
2020/12/21 09:22:40;;;;;;;14.73;3.00;;;8.60;89.30;;;;;;5054343;28;20830;-79
2020/12/21 09:25:05;;;;;;;5.68;2.58;;;8.70;89.30;;;;;;5055010;28;20067;-79
2020/12/21 09:27:31;;;;;;;7.10;2.67;;;8.60;89.10;;;;;;5072981;28;20128;-81
2020/12/21 09:29:56;;;;;;;8.25;2.70;;;8.70;89.00;;;;;;5066132;28;20528;-81
2020/12/21 09:32:22;;;;;;;4.63;2.10;;;8.70;88.70;;;;;;5066246;28;20056;-81
2020/12/21 09:34:48;;;;;;;7.43;2.63;;;8.70;88.30;;;;;;5057424;28;20040;-81
2020/12/21 09:37:20;;;;;;;7.45;2.60;;;8.70;88.50;;;;;;5063388;28;20391;-81
2020/12/21 09:39:45;;;;;;;7.88;3.00;;;8.70;88.60;;;;;;5062049;28;20086;-81
2020/12/21 09:42:11;;;;;;;5.68;2.47;;;8.70;88.40;;;;;;5061500;28;20025;-81
2020/12/21 09:44:36;;;;;;;7.35;2.40;;;8.80;88.10;;;;;;5064123;28;20036;-74
2020/12/21 09:47:02;;;;;;;7.18;2.60;;;8.90;88.40;;;;;;5063645;28;20041;-75
2020/12/21 09:49:31;;;;;;;9.88;2.47;;;8.90;88.40;;;;;;5063129;28;20396;-74
2020/12/21 09:51:56;;;;;;;7.18;2.50;;;8.80;88.50;;;;;;5063613;28;20029;-74
2020/12/21 09:54:22;;;;;;;5.43;2.08;;;8.80;88.10;;;;;;5063074;28;20063;-74
2020/12/21 09:56:51;;;;;;;7.57;2.25;;;8.80;88.40;;;;;;5063636;28;20021;-74
2020/12/21 09:59:17;;;;;;;7.55;2.55;;;8.90;88.40;;;;;;5063946;28;20032;-74
2020/12/21 10:01:43;;;;;;;8.00;2.20;;;8.80;88.40;;;;;;5059256;28;20048;-73
2020/12/21 10:04:09;;;;;;;7.45;2.10;;;8.90;88.40;;;;;;5061089;28;20045;-75
2020/12/21 10:06:34;;;;;;;5.03;2.08;;;8.90;88.10;;;;;;5064660;28;20132;-76
2020/12/21 10:09:00;;;;;;;6.10;2.35;;;8.90;88.10;;;;;;5063102;28;20091;-74
2020/12/21 10:11:26;;;;;;;6.35;2.08;;;8.90;88.00;;;;;;5063175;28;20034;-72
2020/12/21 10:13:51;;;;;;;6.03;1.90;;;9.00;87.70;;;;;;5059217;28;20082;-72
2020/12/21 10:16:17;;;;;;;5.75;2.00;;;9.00;87.70;;;;;;5064650;28;20132;-73
2020/12/21 10:18:43;;;;;;;9.02;2.75;;;9.00;87.60;;;;;;5063225;28;20034;-74
2020/12/21 10:21:08;;;;;;;6.63;2.47;;;9.00;87.30;;;;;;5063645;28;20040;-73
2020/12/21 10:23:34;;;;;;;6.47;1.98;;;9.00;87.20;;;;;;5063345;28;20421;-72
2020/12/21 10:26:03;;;;;;;6.53;2.92;;;9.10;86.90;;;;;;5062685;28;20422;-72
2020/12/21 10:28:29;;;;;;;9.98;2.25;;;9.10;87.10;;;;;;5061413;28;20029;-73
2020/12/21 10:30:55;;;;;;;7.90;2.25;;;9.10;87.40;;;;;;5066949;28;20024;-72
2020/12/21 10:33:20;;;;;;;8.15;2.28;;;9.10;87.50;;;;;;5060908;28;20040;-73
2020/12/21 10:35:46;;;;;;;9.23;2.30;;;9.00;87.50;;;;;;5057459;28;20028;-74
2020/12/21 10:38:12;;;;;;;7.88;2.47;;;9.10;87.50;;;;;;5061884;28;20371;-75
2020/12/21 10:40:37;;;;;;;9.60;3.38;;;9.10;87.30;;;;;;5056884;28;20073;-75
2020/12/21 10:43:03;;;;;;;8.07;3.10;;;9.10;87.30;;;;;;5047003;28;20047;-73
2020/12/21 10:45:29;;;;;;;8.18;2.45;;;9.10;87.40;;;;;;5061626;28;20049;-72
2020/12/21 10:47:54;;;;;;;7.10;2.47;;;9.10;87.30;;;;;;5062372;28;20126;-73
2020/12/21 10:50:20;;;;;;;7.35;2.50;;;9.10;87.10;;;;;;5061460;28;20451;-75
2020/12/21 10:52:46;;;;;;;6.75;2.40;;;9.20;87.20;;;;;;5060187;28;20448;-74
2020/12/21 10:55:11;;;;;;;7.88;2.83;;;9.20;87.30;;;;;;5078345;28;20048;-73
2020/12/21 10:57:37;;;;;;;10.13;2.58;;;9.20;87.10;;;;;;5064620;28;20052;-72
2020/12/21 11:00:06;;;;;;;5.82;2.70;;;9.20;87.20;;;;;;5058916;28;20028;-72
2020/12/21 11:02:31;;;;;;;6.60;2.60;;;9.10;87.50;;;;;;5063369;28;20037;-72
2020/12/21 11:04:57;;;;;;;9.77;3.22;;;9.10;87.40;;;;;;5059266;28;20381;-73
2020/12/21 11:07:22;;;;;;;9.50;2.88;;;9.10;87.80;;;;;;5065775;28;20025;-74
2020/12/21 11:09:48;;;;;;;8.45;2.92;;;9.10;88.00;;;;;;5069392;28;20033;-73
2020/12/21 11:12:14;;;;;;;10.13;3.20;;;9.10;88.00;;;;;;5058228;28;20040;-72
2020/12/21 11:14:39;;;;;;;7.80;3.05;;;9.10;88.10;;;;;;5060312;28;20364;-72
2020/12/21 11:17:05;;;;;;;8.73;3.47;;;9.10;88.40;;;;;;5055012;28;20036;-75
2020/12/21 11:19:31;;;;;;;9.95;3.65;;;9.10;88.70;;;;;;5057406;28;20028;-74
2020/12/21 11:21:56;;;;;;;10.95;2.75;;;9.10;88.80;;;;;;5059078;28;20037;-73
2020/12/21 11:24:22;;;;;;;10.25;3.05;;;9.10;88.70;;;;;;5058357;28;20040;-73
2020/12/21 11:26:53;;;;;;;9.55;2.80;;;9.10;88.80;;;;;;5059526;28;20274;-73
2020/12/21 11:29:19;;;;;;;10.38;3.70;;;9.00;88.90;;;;;;5060048;28;20038;-75
2020/12/21 11:31:44;;;;;;;9.55;3.40;;;9.00;89.10;;;;;;5054599;28;20569;-73
2020/12/21 11:34:10;;;;;;;8.70;3.33;;;9.00;89.30;;;;;;5058874;28;20036;-74
2020/12/21 11:36:36;;;;;;;12.68;3.13;;;9.00;89.40;;;;;;5057315;28;20035;-74
2020/12/21 11:39:01;;;;;;;13.02;3.45;;;9.00;89.70;;;;;;5055533;28;20044;-72
2020/12/21 11:41:31;;;;;;;17.38;3.63;;;8.90;89.80;;;;;;5059514;28;20102;-73
2020/12/21 11:43:57;;;;;;;10.52;3.35;;;8.90;89.90;;;;;;5057622;28;20037;-72
2020/12/21 11:46:33;;;;;;;6.78;2.78;;;8.90;90.10;;;;;;5059219;28;20154;-72
2020/12/21 11:48:59;;;;;;;10.15;3.03;;;8.90;90.40;;;;;;5056719;28;20376;-72
2020/12/21 11:51:25;;;;;;;8.68;3.15;;;8.90;90.60;;;;;;5055114;28;20044;-72
2020/12/21 11:53:52;;;;;;;7.30;2.88;;;8.90;90.90;;;;;;5061090;28;20041;-74
2020/12/21 11:56:18;;;;;;;11.10;3.20;;;8.90;90.80;;;;;;5053059;28;20089;-72
2020/12/21 11:58:45;;;;;;;7.40;2.42;;;8.80;91.00;;;;;;5061822;28;20040;-74
2020/12/21 12:01:10;;;;;;;6.90;2.50;;;8.80;91.00;;;;;;5058039;28;20541;-73
2020/12/21 12:03:36;;;;;;;8.57;2.88;;;8.90;91.20;;;;;;5057140;28;20074;-73
2020/12/21 12:06:01;;;;;;;6.00;2.30;;;8.80;91.20;;;;;;5054511;28;20054;-73
2020/12/21 12:08:27;;;;;;;5.97;2.50;;;8.90;91.30;;;;;;5054612;28;20040;-73
2020/12/21 12:10:53;;;;;;;7.80;2.45;;;8.90;91.40;;;;;;5055424;28;20033;-74
2020/12/21 12:13:18;;;;;;;4.28;2.05;;;9.00;91.60;;;;;;5055625;28;20025;-72
2020/12/21 12:15:44;;;;;;;5.18;2.00;;;9.00;91.60;;;;;;5058772;28;20347;-73
2020/12/21 12:18:10;;;;;;;4.68;1.90;;;8.90;91.50;;;;;;5053570;28;20033;-72
2020/12/21 12:20:36;;;;;;;5.43;2.05;;;8.90;91.60;;;;;;5059211;28;20056;-72
2020/12/21 12:23:01;;;;;;;6.07;2.40;;;8.90;91.80;;;;;;5055997;28;20178;-73
2020/12/21 12:25:27;;;;;;;5.70;2.30;;;8.90;91.90;;;;;;5056992;28;20045;-72
2020/12/21 12:27:52;;;;;;;8.50;2.78;;;8.90;91.90;;;;;;5058183;28;20066;-72
2020/12/21 12:30:18;;;;;;;4.97;2.15;;;8.90;92.00;;;;;;5058731;28;20440;-72
2020/12/21 12:32:43;;;;;;;5.43;2.67;;;8.90;92.00;;;;;;5062900;28;20041;-72
2020/12/21 12:35:09;;;;;;;4.80;2.50;;;8.90;92.10;;;;;;5061778;28;20097;-73
2020/12/21 12:37:35;;;;;;;7.50;2.67;;;8.90;92.20;;;;;;5063929;28;20041;-72
2020/12/21 12:40:00;;;;;;;5.65;2.33;;;8.90;92.20;;;;;;5063876;28;20035;-73
2020/12/21 12:42:26;;;;;;;6.85;2.15;;;8.90;92.20;;;;;;5064580;28;20082;-72
2020/12/21 12:44:52;;;;;;;4.38;1.98;;;8.90;92.20;;;;;;5064856;28;20041;-72
2020/12/21 12:47:17;;;;;;;5.10;2.20;;;8.80;92.20;;;;;;5065861;28;20032;-72
2020/12/21 12:49:43;;;;;;;7.30;2.50;;;8.90;92.30;;;;;;5064710;28;20047;-73